createdAt,value
2018-05-07T00:03:24.370Z,7.33
2018-05-07T00:09:19.379Z,6.88
2018-05-07T00:15:14.394Z,6.73
2018-05-07T00:21:09.388Z,6.99
2018-05-07T00:27:04.373Z,6.84
2018-05-07T00:32:59.389Z,6.49
2018-05-07T00:38:54.415Z,6.81
2018-05-07T00:44:49.426Z,6.77
2018-05-07T00:50:44.386Z,7.03
2018-05-07T00:56:39.434Z,8.58
2018-05-07T01:02:34.399Z,8.74
2018-05-07T01:08:29.421Z,9.21
2018-05-07T01:14:24.387Z,9.53
2018-05-07T01:20:19.412Z,7.8
2018-05-07T01:26:14.415Z,8.23
2018-05-07T01:32:09.418Z,7.46
2018-05-07T01:38:04.465Z,7.29
2018-05-07T01:43:59.414Z,6.76
2018-05-07T01:49:54.444Z,6.6
2018-05-07T01:55:49.429Z,6.79
2018-05-07T02:01:44.435Z,6.38
2018-05-07T02:07:39.496Z,7.17
2018-05-07T02:13:34.434Z,8.5
2018-05-07T02:19:29.462Z,7.76
2018-05-07T02:25:24.437Z,7.98
2018-05-07T02:31:19.441Z,7.83
2018-05-07T02:37:14.514Z,7.74
2018-05-07T02:43:09.508Z,8.8
2018-05-07T02:49:04.440Z,9.01
2018-05-07T02:54:59.468Z,9.28
2018-05-07T03:00:54.459Z,8.91
2018-05-07T03:06:49.466Z,10.35
2018-05-07T03:12:44.443Z,10.57
2018-05-07T03:18:39.437Z,9.62
2018-05-07T03:24:34.433Z,9.54
2018-05-07T03:30:29.468Z,9.73
2018-05-07T03:36:24.498Z,10.97
2018-05-07T03:42:19.490Z,10.22
2018-05-07T03:48:14.433Z,10.25
2018-05-07T03:54:09.445Z,9.55
2018-05-07T04:00:04.436Z,10.09
2018-05-07T04:05:59.494Z,10.6
2018-05-07T04:11:54.453Z,11.61
2018-05-07T04:17:49.490Z,10.78
2018-05-07T04:23:44.498Z,11.29
2018-05-07T04:29:39.479Z,11.03
2018-05-07T04:35:34.502Z,10.46
2018-05-07T04:41:29.492Z,9.99
2018-05-07T04:47:24.483Z,10.79
2018-05-07T04:53:19.496Z,10.53
2018-05-07T04:59:14.529Z,17.03
2018-05-07T05:05:09.507Z,10.29
2018-05-07T05:11:04.492Z,10.5
2018-05-07T05:16:59.570Z,11.08
2018-05-07T05:22:54.546Z,11.31
2018-05-07T05:28:49.524Z,12.07
2018-05-07T05:34:44.491Z,10.87
2018-05-07T05:40:39.469Z,11.44
2018-05-07T05:46:34.486Z,13.33
2018-05-07T05:52:29.522Z,18.55
2018-05-07T05:58:24.492Z,23.81
2018-05-07T06:04:19.508Z,21.73
2018-05-07T06:10:14.531Z,18.71
2018-05-07T06:16:09.496Z,17.59
2018-05-07T06:22:04.505Z,17.23
2018-05-07T06:27:59.481Z,16.91
2018-05-07T06:33:54.520Z,16.97
2018-05-07T06:39:49.516Z,19.11
2018-05-07T06:45:44.566Z,20.37
2018-05-07T06:51:39.548Z,19.53
2018-05-07T06:57:34.515Z,20.71
2018-05-07T07:03:29.523Z,19.95
2018-05-07T07:09:24.516Z,19.34
2018-05-07T07:15:19.534Z,23.33
2018-05-07T07:21:14.513Z,21.81
2018-05-07T07:27:09.546Z,20.59
2018-05-07T07:33:04.533Z,20.46
2018-05-07T07:38:59.589Z,20.52
2018-05-07T07:44:54.559Z,20.96
2018-05-07T07:50:49.537Z,20.54
2018-05-07T07:56:44.540Z,21.23
2018-05-07T08:02:39.545Z,21.23
2018-05-07T08:08:34.519Z,29.27
2018-05-07T08:14:29.637Z,29.9
2018-05-07T08:20:24.557Z,23.57
2018-05-07T08:26:19.532Z,24.44
2018-05-07T08:32:14.564Z,26.01
2018-05-07T08:38:09.553Z,24.93
2018-05-07T08:44:04.621Z,31.11
2018-05-07T08:49:59.553Z,26.3
2018-05-07T08:55:54.563Z,35.97
2018-05-07T09:01:49.580Z,41.51
2018-05-07T09:07:44.558Z,39.15
2018-05-07T09:13:39.579Z,38.63
2018-05-07T09:19:34.544Z,30.56
2018-05-07T09:25:29.564Z,39.76
2018-05-07T09:31:24.570Z,48.66
2018-05-07T09:37:19.549Z,36.37
2018-05-07T09:43:14.564Z,30.99
2018-05-07T09:49:09.560Z,26.16
2018-05-07T09:55:04.548Z,16.47
2018-05-07T10:00:59.550Z,16.34
2018-05-07T10:06:54.582Z,14.85
2018-05-07T10:12:49.609Z,14.97
2018-05-07T10:18:44.610Z,21.01
2018-05-07T10:24:39.562Z,16.57
2018-05-07T10:30:34.568Z,14.11
2018-05-07T10:36:29.812Z,13.8
2018-05-07T10:42:24.572Z,20.33
2018-05-07T10:48:19.588Z,26.19
2018-05-07T10:54:14.586Z,42.96
2018-05-07T11:00:09.660Z,45.99
2018-05-07T11:06:04.584Z,62.68
2018-05-07T11:11:59.618Z,88.31
2018-05-07T11:17:54.582Z,78.09
2018-05-07T11:23:49.589Z,80.4
2018-05-07T11:29:44.626Z,75.2
2018-05-07T11:35:39.581Z,73.1
2018-05-07T11:41:34.634Z,85.55
2018-05-07T11:47:29.688Z,54.75
2018-05-07T11:53:24.593Z,51.29
2018-05-07T11:59:19.613Z,33.38
2018-05-07T12:05:14.590Z,31.53
2018-05-07T12:11:09.602Z,26.05
2018-05-07T12:17:04.623Z,22.57
2018-05-07T12:22:59.613Z,20.03
2018-05-07T12:28:54.646Z,18.28
2018-05-07T12:34:49.612Z,18.56
2018-05-07T12:40:44.647Z,18.39
2018-05-07T12:46:39.612Z,19.26
2018-05-07T12:52:34.628Z,15.57
2018-05-07T12:58:29.664Z,19.43
2018-05-07T13:04:24.654Z,17.57
2018-05-07T13:10:19.653Z,15.47
2018-05-07T13:16:14.638Z,15.45
2018-05-07T13:22:09.662Z,14.78
2018-05-07T13:28:04.662Z,14.2
2018-05-07T13:33:59.730Z,11.3
2018-05-07T13:39:54.699Z,9.68
2018-05-07T13:45:49.682Z,11.99
2018-05-07T13:51:44.661Z,23.05
2018-05-07T13:57:39.904Z,11.21
2018-05-07T14:03:34.636Z,34.56
2018-05-07T14:09:29.681Z,33.16
2018-05-07T14:15:24.684Z,29.72
2018-05-07T14:21:19.789Z,28.8
2018-05-07T14:27:14.652Z,26.09
2018-05-07T14:33:09.659Z,28.56
2018-05-07T14:39:04.662Z,21.4
2018-05-07T14:44:59.650Z,18.62
2018-05-07T14:50:54.667Z,17.89
2018-05-07T14:56:49.655Z,15.13
2018-05-07T15:02:44.644Z,15.77
2018-05-07T15:08:39.704Z,12.26
2018-05-07T15:14:34.689Z,10.9
2018-05-07T15:20:29.693Z,10.06
2018-05-07T15:26:24.708Z,7.78
2018-05-07T15:32:19.692Z,7.66
2018-05-07T15:38:14.691Z,9.03
2018-05-07T15:44:09.743Z,7.73
2018-05-07T15:50:04.708Z,9.2
2018-05-07T15:55:59.810Z,9.82
2018-05-07T16:01:54.705Z,11.43
2018-05-07T16:07:49.722Z,8.82
2018-05-07T16:13:44.680Z,9.05
2018-05-07T16:19:39.727Z,8.22
2018-05-07T16:25:34.686Z,8.04
2018-05-07T16:31:29.740Z,8.4
2018-05-07T16:37:24.692Z,11.68
2018-05-07T16:43:19.722Z,18.24
2018-05-07T16:49:14.695Z,38.66
2018-05-07T16:55:09.777Z,31.89
2018-05-07T17:01:04.719Z,22.63
2018-05-07T17:06:59.728Z,23.16
2018-05-07T17:12:54.698Z,23.17
2018-05-07T17:18:49.727Z,21.88
2018-05-07T17:24:44.709Z,16.74
2018-05-07T17:30:39.746Z,12.93
2018-05-07T17:36:34.723Z,13.86
2018-05-07T17:42:29.782Z,11.5
2018-05-07T17:48:24.776Z,9.19
2018-05-07T17:54:19.771Z,10.84
2018-05-07T18:00:14.731Z,10.87
2018-05-07T18:06:09.765Z,9.71
2018-05-07T18:12:04.792Z,10.37
2018-05-07T18:17:59.752Z,8.9
2018-05-07T18:23:54.711Z,9.51
2018-05-07T18:29:49.781Z,9.27
2018-05-07T18:35:44.753Z,9.61
2018-05-07T18:41:39.756Z,9.05
2018-05-07T18:47:34.772Z,9.19
2018-05-07T18:53:29.771Z,8.5
2018-05-07T18:59:24.804Z,9.73
2018-05-07T19:05:19.734Z,9.05
2018-05-07T19:11:14.755Z,13.13
2018-05-07T19:17:09.776Z,12.14
2018-05-07T19:23:04.745Z,10.67
2018-05-07T19:28:59.781Z,9.52
2018-05-07T19:34:54.784Z,9.21
2018-05-07T19:40:49.777Z,8.95
2018-05-07T19:46:44.762Z,11.03
2018-05-07T19:52:39.815Z,10.11
2018-05-07T19:58:34.863Z,9.9
2018-05-07T20:04:29.814Z,10.07
2018-05-07T20:10:24.817Z,9.75
2018-05-07T20:16:19.773Z,9.5
2018-05-07T20:22:14.790Z,9.3
2018-05-07T20:28:09.784Z,9.82
2018-05-07T20:34:04.793Z,8.87
2018-05-07T20:39:59.840Z,9
2018-05-07T20:45:54.785Z,8.93
2018-05-07T20:51:49.840Z,9.35
2018-05-07T20:57:44.773Z,8.99
2018-05-07T21:03:39.822Z,8.72
2018-05-07T21:09:34.798Z,8.96
2018-05-07T21:15:29.807Z,9.04
2018-05-07T21:21:24.854Z,8.29
2018-05-07T21:27:19.830Z,7.61
2018-05-07T21:33:14.811Z,7.63
2018-05-07T21:39:09.846Z,8.48
2018-05-07T21:45:04.873Z,8.33
2018-05-07T21:50:59.827Z,8.82
2018-05-07T21:56:54.902Z,9.18
2018-05-07T22:02:49.844Z,9.26
2018-05-07T22:08:44.808Z,8.71
2018-05-07T22:14:39.830Z,8.42
2018-05-07T22:20:34.856Z,7.4
2018-05-07T22:26:29.846Z,7.13
2018-05-07T22:32:24.879Z,7.53
2018-05-07T22:38:19.813Z,7.31
2018-05-07T22:44:14.866Z,7.6
2018-05-07T22:50:09.861Z,7.74
2018-05-07T22:56:04.821Z,7.03
2018-05-07T23:01:59.815Z,7.01
2018-05-07T23:07:54.825Z,6.87
2018-05-07T23:13:49.827Z,7.04
2018-05-07T23:19:44.827Z,6.58
2018-05-07T23:25:39.872Z,6.99
2018-05-07T23:31:34.863Z,7
2018-05-07T23:37:29.821Z,6.31
2018-05-07T23:43:24.821Z,7.1
2018-05-07T23:49:19.873Z,7.11
2018-05-07T23:55:14.829Z,6.13
